Sunday, December 16, 2018, 10:42 AM GMT
Back to Local

CWKG, Kejimkujik 1, N. S.

Location: , , Canada Lat: 44.433
Local Time: 10:42 AM GMT (10:42 GMT) Lon: -65.2
Time Zone: GMT Elev: 416 ft

Show me the last for .
Show Coded

Time T Td Feel RH Dir Speed Gust Alt SLP Vis Weather Sky Remarks
2018-12-16 10:00 25 26 - 104 350° 1 - - 30.23 0 None
2018-12-16 09:00 25 25 - 97 340° 1 - - 30.22 0 None
2018-12-16 08:00 25 26 - 102 270° 1 - - 30.23 0 None
2018-12-16 07:00 27 26 - 96 300° 1 - - 30.23 0 None
2018-12-16 06:00 26 25 - 96 10° 2 - - 30.20 0 None
2018-12-16 05:00 27 26 - 96 310° 2 - - 30.20 0 None
2018-12-16 04:00 28 27 - 96 330° 2 - - 30.18 0 None
2018-12-16 03:00 29 29 - 102 330° 2 - - 30.18 0 None
2018-12-16 02:00 29 29 - 101 330° 2 - - 30.18 0 None
2018-12-16 01:00 30 29 - 95 320° 2 - - 30.18 0 None
2018-12-16 00:00 32 29 - 87 340° 2 - - 30.17 0 None
2018-12-15 23:00 32 29 27 90 350° 5 - - 30.15 0 None
2018-12-15 22:00 34 30 31 84 340° 3 - - 30.13 0 None
2018-12-15 21:00 35 30 33 80 330° 3 - - 30.12 0 None
2018-12-15 20:00 38 33 28 83 320° 7 17 - 30.10 0 Peak wind: 19 mph (17 kts) from 10° at 35 min
2018-12-15 19:00 41 34 35 77 300° 8 - - 30.06 0 None
2018-12-15 18:00 41 37 37 83 300° 7 - - 30.04 0 None
2018-12-15 17:00 42 39 37 90 300° 7 - - 30.03 0 None
2018-12-15 16:00 42 41 40 95 280° 5 - - 30.04 0 None
2018-12-15 15:00 41 41 37 99 300° 6 - - 30.07 0 None
2018-12-15 14:00 40 40 36 100 280° 6 - - 30.06 0 None
2018-12-15 13:00 40 40 35 100 270° 6 - - 30.06 0 None
2018-12-15 12:00 38 38 35 100 280° 5 - - 30.05 0 1-hr Precip Total: 0.01"
2018-12-15 11:00 36 36 32 100 250° 5 - - 30.06 0 None

Support USWX by starting your Amazon purchase here.